sensor_id;sensor_type;location;lat;lon;timestamp;pressure;altitude;pressure_sealevel;temperature;humidity
20897;BME280;10608;42.600;23.398;2022-11-20T00:01:47;53317.69;;;-138.15;60.92
20897;BME280;10608;42.600;23.398;2022-11-20T00:04:12;53284.16;;;-138.15;61.40
20897;BME280;10608;42.600;23.398;2022-11-20T00:06:38;53319.66;;;-138.15;60.55
20897;BME280;10608;42.600;23.398;2022-11-20T00:09:03;53337.41;;;-138.15;58.82
20897;BME280;10608;42.600;23.398;2022-11-20T00:11:31;53307.81;;;-138.15;56.59
20897;BME280;10608;42.600;23.398;2022-11-20T00:13:58;53282.19;;;-138.15;55.50
20897;BME280;10608;42.600;23.398;2022-11-20T00:16:26;53309.78;;;-138.15;53.78
20897;BME280;10608;42.600;23.398;2022-11-20T00:18:53;53278.22;;;-138.15;53.39
20897;BME280;10608;42.600;23.398;2022-11-20T00:21:24;53266.41;;;-138.15;50.34
20897;BME280;10608;42.600;23.398;2022-11-20T00:23:51;53282.19;;;-138.15;48.77
20897;BME280;10608;42.600;23.398;2022-11-20T00:26:19;53292.03;;;-138.15;48.64
20897;BME280;10608;42.600;23.398;2022-11-20T00:28:52;53329.53;;;-138.15;48.65
20897;BME280;10608;42.600;23.398;2022-11-20T00:31:18;53274.28;;;-138.15;47.59
20897;BME280;10608;42.600;23.398;2022-11-20T00:33:44;53282.19;;;-138.15;48.27
20897;BME280;10608;42.600;23.398;2022-11-20T00:36:13;53250.63;;;-138.15;47.60
20897;BME280;10608;42.600;23.398;2022-11-20T00:38:38;53274.28;;;-138.15;46.75
20897;BME280;10608;42.600;23.398;2022-11-20T00:41:07;53268.38;;;-138.15;45.73
20897;BME280;10608;42.600;23.398;2022-11-20T00:43:33;53250.63;;;-138.15;45.08
20897;BME280;10608;42.600;23.398;2022-11-20T00:46:02;53266.41;;;-138.15;45.24
20897;BME280;10608;42.600;23.398;2022-11-20T00:48:28;53270.34;;;-138.15;44.95
20897;BME280;10608;42.600;23.398;2022-11-20T00:50:53;53264.41;;;-138.15;44.02
20897;BME280;10608;42.600;23.398;2022-11-20T00:53:19;53250.63;;;-138.15;43.74
20897;BME280;10608;42.600;23.398;2022-11-20T00:56:02;53248.63;;;-138.15;42.57
20897;BME280;10608;42.600;23.398;2022-11-20T00:58:33;53246.66;;;-138.15;44.31
20897;BME280;10608;42.600;23.398;2022-11-20T01:01:25;53217.06;;;-138.15;45.40
20897;BME280;10608;42.600;23.398;2022-11-20T01:03:54;53286.13;;;-138.15;46.24
20897;BME280;10608;42.600;23.398;2022-11-20T01:06:25;53280.19;;;-138.15;47.52
20897;BME280;10608;42.600;23.398;2022-11-20T01:08:53;53290.06;;;-138.15;47.82
20897;BME280;10608;42.600;23.398;2022-11-20T01:11:22;53272.31;;;-138.15;48.45
20897;BME280;10608;42.600;23.398;2022-11-20T01:13:49;53282.19;;;-138.15;45.27
20897;BME280;10608;42.600;23.398;2022-11-20T01:16:19;53256.53;;;-138.15;44.18
20897;BME280;10608;42.600;23.398;2022-11-20T01:18:47;53250.63;;;-138.15;44.92
20897;BME280;10608;42.600;23.398;2022-11-20T01:21:18;53260.47;;;-138.15;42.80
20897;BME280;10608;42.600;23.398;2022-11-20T01:23:45;53238.78;;;-138.15;41.73
20897;BME280;10608;42.600;23.398;2022-11-20T01:26:13;53260.47;;;-138.15;42.36
20897;BME280;10608;42.600;23.398;2022-11-20T01:28:40;53240.75;;;-138.15;41.46
20897;BME280;10608;42.600;23.398;2022-11-20T01:31:16;53224.97;;;-138.15;42.10
20897;BME280;10608;42.600;23.398;2022-11-20T01:33:43;53278.22;;;-138.15;41.72
20897;BME280;10608;42.600;23.398;2022-11-20T01:36:09;53264.41;;;-138.15;41.29
20897;BME280;10608;42.600;23.398;2022-11-20T01:38:35;53248.63;;;-138.15;41.95
20897;BME280;10608;42.600;23.398;2022-11-20T01:41:01;53234.84;;;-138.15;41.81
20897;BME280;10608;42.600;23.398;2022-11-20T01:43:27;53254.56;;;-138.15;41.61
20897;BME280;10608;42.600;23.398;2022-11-20T01:46:03;53254.56;;;-138.15;41.71
20897;BME280;10608;42.600;23.398;2022-11-20T01:48:38;53266.41;;;-138.15;41.51
20897;BME280;10608;42.600;23.398;2022-11-20T01:51:11;53252.59;;;-138.15;40.71
20897;BME280;10608;42.600;23.398;2022-11-20T01:53:41;53248.63;;;-138.15;40.25
20897;BME280;10608;42.600;23.398;2022-11-20T01:56:09;53276.25;;;-138.15;40.80
20897;BME280;10608;42.600;23.398;2022-11-20T01:58:41;53270.34;;;-138.15;41.35
20897;BME280;10608;42.600;23.398;2022-11-20T02:01:09;53248.63;;;-138.15;41.98
20897;BME280;10608;42.600;23.398;2022-11-20T02:03:35;53246.66;;;-138.15;41.78
20897;BME280;10608;42.600;23.398;2022-11-20T02:06:32;53270.34;;;-138.15;42.26
20897;BME280;10608;42.600;23.398;2022-11-20T02:09:00;53254.56;;;-138.15;40.95
20897;BME280;10608;42.600;23.398;2022-11-20T02:11:25;53274.28;;;-138.15;41.08
20897;BME280;10608;42.600;23.398;2022-11-20T02:13:51;53232.84;;;-138.15;40.23
20897;BME280;10608;42.600;23.398;2022-11-20T02:18:53;53250.63;;;-138.15;40.34
20897;BME280;10608;42.600;23.398;2022-11-20T02:24:11;53256.53;;;-138.15;40.46
20897;BME280;10608;42.600;23.398;2022-11-20T02:27:06;53262.44;;;-138.15;40.55
20897;BME280;10608;42.600;23.398;2022-11-20T02:32:23;53219.06;;;-138.15;40.83
20897;BME280;10608;42.600;23.398;2022-11-20T02:34:49;53254.56;;;-138.15;40.85
20897;BME280;10608;42.600;23.398;2022-11-20T02:37:15;53250.63;;;-138.15;41.17
20897;BME280;10608;42.600;23.398;2022-11-20T02:39:41;53295.97;;;-138.15;41.63
20897;BME280;10608;42.600;23.398;2022-11-20T02:42:08;53201.28;;;-138.15;40.45
20897;BME280;10608;42.600;23.398;2022-11-20T02:44:34;53234.84;;;-138.15;41.03
20897;BME280;10608;42.600;23.398;2022-11-20T02:46:59;53264.41;;;-138.15;40.52
20897;BME280;10608;42.600;23.398;2022-11-20T02:49:25;53254.56;;;-138.15;41.51
20897;BME280;10608;42.600;23.398;2022-11-20T02:51:51;53270.34;;;-138.15;40.82
20897;BME280;10608;42.600;23.398;2022-11-20T02:54:17;53246.66;;;-138.15;41.09
20897;BME280;10608;42.600;23.398;2022-11-20T02:56:42;53246.66;;;-138.15;40.20
20897;BME280;10608;42.600;23.398;2022-11-20T02:59:08;53224.97;;;-138.15;40.30
20897;BME280;10608;42.600;23.398;2022-11-20T03:01:34;53238.78;;;-138.15;40.69
20897;BME280;10608;42.600;23.398;2022-11-20T03:04:00;53250.63;;;-138.15;40.90
20897;BME280;10608;42.600;23.398;2022-11-20T03:06:25;53234.84;;;-138.15;41.02
20897;BME280;10608;42.600;23.398;2022-11-20T03:08:50;53232.84;;;-138.15;42.05
20897;BME280;10608;42.600;23.398;2022-11-20T03:11:16;53250.63;;;-138.15;42.24
20897;BME280;10608;42.600;23.398;2022-11-20T03:13:42;53232.84;;;-138.15;41.89
20897;BME280;10608;42.600;23.398;2022-11-20T03:16:13;53282.19;;;-138.15;42.32
20897;BME280;10608;42.600;23.398;2022-11-20T03:18:40;53286.13;;;-138.15;42.51
20897;BME280;10608;42.600;23.398;2022-11-20T03:21:07;53238.78;;;-138.15;42.75
20897;BME280;10608;42.600;23.398;2022-11-20T03:23:34;53282.19;;;-138.15;43.13
20897;BME280;10608;42.600;23.398;2022-11-20T03:26:19;53246.66;;;-138.15;43.07
20897;BME280;10608;42.600;23.398;2022-11-20T03:28:47;53254.56;;;-138.15;43.16
20897;BME280;10608;42.600;23.398;2022-11-20T03:31:14;53272.31;;;-138.15;42.64
20897;BME280;10608;42.600;23.398;2022-11-20T03:33:41;53219.06;;;-138.15;43.91
20897;BME280;10608;42.600;23.398;2022-11-20T03:36:12;53256.53;;;-138.15;42.91
20897;BME280;10608;42.600;23.398;2022-11-20T03:38:38;53264.41;;;-138.15;43.41
20897;BME280;10608;42.600;23.398;2022-11-20T03:41:06;53250.63;;;-138.15;43.11
20897;BME280;10608;42.600;23.398;2022-11-20T03:43:32;53282.19;;;-138.15;43.83
20897;BME280;10608;42.600;23.398;2022-11-20T03:45:58;53268.38;;;-138.15;42.79
20897;BME280;10608;42.600;23.398;2022-11-20T03:48:24;53282.19;;;-138.15;42.74
20897;BME280;10608;42.600;23.398;2022-11-20T03:50:49;53252.59;;;-138.15;43.16
20897;BME280;10608;42.600;23.398;2022-11-20T03:53:15;53226.94;;;-138.15;43.33
20897;BME280;10608;42.600;23.398;2022-11-20T03:55:41;53262.44;;;-138.15;43.35
20897;BME280;10608;42.600;23.398;2022-11-20T03:58:07;53258.50;;;-138.15;42.81
20897;BME280;10608;42.600;23.398;2022-11-20T04:00:32;53254.56;;;-138.15;42.65
20897;BME280;10608;42.600;23.398;2022-11-20T04:02:59;53252.59;;;-138.15;43.06
20897;BME280;10608;42.600;23.398;2022-11-20T04:05:25;53276.25;;;-138.15;42.56
20897;BME280;10608;42.600;23.398;2022-11-20T04:07:50;53248.63;;;-138.15;42.61
20897;BME280;10608;42.600;23.398;2022-11-20T04:10:16;53264.41;;;-138.15;42.51
20897;BME280;10608;42.600;23.398;2022-11-20T04:12:41;53246.66;;;-138.15;41.98
20897;BME280;10608;42.600;23.398;2022-11-20T04:15:07;53246.66;;;-138.15;41.98
20897;BME280;10608;42.600;23.398;2022-11-20T04:17:32;53252.59;;;-138.15;42.02
20897;BME280;10608;42.600;23.398;2022-11-20T04:19:58;53250.63;;;-138.15;42.36
20897;BME280;10608;42.600;23.398;2022-11-20T04:22:23;53223.00;;;-138.15;43.39
20897;BME280;10608;42.600;23.398;2022-11-20T04:24:48;53270.34;;;-138.15;43.07
20897;BME280;10608;42.600;23.398;2022-11-20T04:27:14;53278.22;;;-138.15;43.94
20897;BME280;10608;42.600;23.398;2022-11-20T04:29:39;53254.56;;;-138.15;44.58
20897;BME280;10608;42.600;23.398;2022-11-20T04:32:05;53292.03;;;-138.15;43.90
20897;BME280;10608;42.600;23.398;2022-11-20T04:34:30;53242.72;;;-138.15;44.85
20897;BME280;10608;42.600;23.398;2022-11-20T04:36:56;53250.63;;;-138.15;46.08
20897;BME280;10608;42.600;23.398;2022-11-20T04:39:21;53286.13;;;-138.15;46.49
20897;BME280;10608;42.600;23.398;2022-11-20T04:41:46;53240.75;;;-138.15;46.71
20897;BME280;10608;42.600;23.398;2022-11-20T04:44:12;53226.94;;;-138.15;47.28
20897;BME280;10608;42.600;23.398;2022-11-20T04:46:41;53246.66;;;-138.15;47.47
20897;BME280;10608;42.600;23.398;2022-11-20T04:49:08;53262.44;;;-138.15;47.57
20897;BME280;10608;42.600;23.398;2022-11-20T04:51:34;53246.66;;;-138.15;47.81
20897;BME280;10608;42.600;23.398;2022-11-20T04:53:59;53240.75;;;-138.15;47.83
20897;BME280;10608;42.600;23.398;2022-11-20T04:56:25;53270.34;;;-138.15;47.83
20897;BME280;10608;42.600;23.398;2022-11-20T04:58:50;53244.69;;;-138.15;47.71
20897;BME280;10608;42.600;23.398;2022-11-20T05:01:21;53258.50;;;-138.15;47.43
20897;BME280;10608;42.600;23.398;2022-11-20T05:03:48;53274.28;;;-138.15;48.01
20897;BME280;10608;42.600;23.398;2022-11-20T05:06:16;53246.66;;;-138.15;49.98
20897;BME280;10608;42.600;23.398;2022-11-20T05:08:42;53319.66;;;-138.15;56.08
20897;BME280;10608;42.600;23.398;2022-11-20T05:11:18;53258.50;;;-138.15;61.96
20897;BME280;10608;42.600;23.398;2022-11-20T05:13:44;53256.53;;;-138.15;66.21
20897;BME280;10608;42.600;23.398;2022-11-20T05:16:11;53290.06;;;-138.15;69.13
20897;BME280;10608;42.600;23.398;2022-11-20T05:18:38;53301.91;;;-138.15;69.34
20897;BME280;10608;42.600;23.398;2022-11-20T05:21:04;53313.75;;;-138.15;69.17
20897;BME280;10608;42.600;23.398;2022-11-20T05:23:30;53297.97;;;-138.15;70.97
20897;BME280;10608;42.600;23.398;2022-11-20T05:25:57;53297.97;;;-138.15;69.84
20897;BME280;10608;42.600;23.398;2022-11-20T05:28:23;53321.63;;;-138.15;69.77
20897;BME280;10608;42.600;23.398;2022-11-20T05:30:49;53301.91;;;-138.15;69.39
20897;BME280;10608;42.600;23.398;2022-11-20T05:33:15;53301.91;;;-138.15;69.24
20897;BME280;10608;42.600;23.398;2022-11-20T05:35:40;53303.88;;;-138.15;68.92
20897;BME280;10608;42.600;23.398;2022-11-20T05:38:06;53295.97;;;-138.15;68.82
20897;BME280;10608;42.600;23.398;2022-11-20T05:40:31;53301.91;;;-138.15;68.37
20897;BME280;10608;42.600;23.398;2022-11-20T05:42:57;53282.19;;;-138.15;68.43
20897;BME280;10608;42.600;23.398;2022-11-20T05:45:22;53297.97;;;-138.15;67.59
20897;BME280;10608;42.600;23.398;2022-11-20T05:47:47;53301.91;;;-138.15;66.46
20897;BME280;10608;42.600;23.398;2022-11-20T05:50:14;53341.34;;;-138.15;66.38
20897;BME280;10608;42.600;23.398;2022-11-20T05:52:40;53262.44;;;-138.15;66.24
20897;BME280;10608;42.600;23.398;2022-11-20T05:55:06;53297.97;;;-138.15;68.09
20897;BME280;10608;42.600;23.398;2022-11-20T05:57:31;53303.88;;;-138.15;70.36
20897;BME280;10608;42.600;23.398;2022-11-20T05:59:56;53286.13;;;-138.15;70.82
20897;BME280;10608;42.600;23.398;2022-11-20T06:02:22;53292.03;;;-138.15;71.87
20897;BME280;10608;42.600;23.398;2022-11-20T06:04:47;53317.69;;;-138.15;70.97
20897;BME280;10608;42.600;23.398;2022-11-20T06:07:13;53282.19;;;-138.15;72.37
20897;BME280;10608;42.600;23.398;2022-11-20T06:09:39;53301.91;;;-138.15;72.35
20897;BME280;10608;42.600;23.398;2022-11-20T06:12:05;53313.75;;;-138.15;69.38
20897;BME280;10608;42.600;23.398;2022-11-20T06:14:30;53284.16;;;-138.15;67.00
20897;BME280;10608;42.600;23.398;2022-11-20T06:16:56;53313.75;;;-138.15;67.50
20897;BME280;10608;42.600;23.398;2022-11-20T06:19:21;53297.97;;;-138.15;67.80
20897;BME280;10608;42.600;23.398;2022-11-20T06:21:48;53286.13;;;-138.15;65.68
20897;BME280;10608;42.600;23.398;2022-11-20T06:24:14;53317.69;;;-138.15;65.37
20897;BME280;10608;42.600;23.398;2022-11-20T06:26:39;53307.81;;;-138.15;64.36
20897;BME280;10608;42.600;23.398;2022-11-20T06:29:05;53297.97;;;-138.15;64.55
20897;BME280;10608;42.600;23.398;2022-11-20T06:31:30;53290.06;;;-138.15;64.02
20897;BME280;10608;42.600;23.398;2022-11-20T06:34:00;53278.22;;;-138.15;64.69
20897;BME280;10608;42.600;23.398;2022-11-20T06:36:26;53321.63;;;-138.15;63.31
20897;BME280;10608;42.600;23.398;2022-11-20T06:38:52;53295.97;;;-138.15;64.03
20897;BME280;10608;42.600;23.398;2022-11-20T06:41:19;53299.94;;;-138.15;62.33
20897;BME280;10608;42.600;23.398;2022-11-20T06:43:45;53297.97;;;-138.15;61.66
20897;BME280;10608;42.600;23.398;2022-11-20T06:46:12;53299.94;;;-138.15;61.40
20897;BME280;10608;42.600;23.398;2022-11-20T06:48:38;53268.38;;;-138.15;59.61
20897;BME280;10608;42.600;23.398;2022-11-20T06:51:05;53317.69;;;-138.15;58.70
20897;BME280;10608;42.600;23.398;2022-11-20T06:53:31;53274.28;;;-138.15;58.48
20897;BME280;10608;42.600;23.398;2022-11-20T06:55:57;53274.28;;;-138.15;57.06
20897;BME280;10608;42.600;23.398;2022-11-20T06:58:23;53292.03;;;-138.15;56.84
20897;BME280;10608;42.600;23.398;2022-11-20T07:00:51;53299.94;;;-138.15;56.12
20897;BME280;10608;42.600;23.398;2022-11-20T07:03:16;53276.25;;;-138.15;56.76
20897;BME280;10608;42.600;23.398;2022-11-20T07:05:42;53282.19;;;-138.15;56.36
20897;BME280;10608;42.600;23.398;2022-11-20T07:08:08;53266.41;;;-138.15;55.16
20897;BME280;10608;42.600;23.398;2022-11-20T07:10:33;53258.50;;;-138.15;53.98
20897;BME280;10608;42.600;23.398;2022-11-20T07:12:59;53290.06;;;-138.15;54.58
20897;BME280;10608;42.600;23.398;2022-11-20T07:15:25;53284.16;;;-138.15;54.70
20897;BME280;10608;42.600;23.398;2022-11-20T07:17:51;53262.44;;;-138.15;52.52
20897;BME280;10608;42.600;23.398;2022-11-20T07:20:17;53274.28;;;-138.15;53.69
20897;BME280;10608;42.600;23.398;2022-11-20T07:22:42;53268.38;;;-138.15;53.61
20897;BME280;10608;42.600;23.398;2022-11-20T07:25:09;53258.50;;;-138.15;51.83
20897;BME280;10608;42.600;23.398;2022-11-20T07:27:35;53292.03;;;-138.15;52.71
20897;BME280;10608;42.600;23.398;2022-11-20T07:30:00;53301.91;;;-138.15;52.14
20897;BME280;10608;42.600;23.398;2022-11-20T07:32:26;53282.19;;;-138.15;52.37
20897;BME280;10608;42.600;23.398;2022-11-20T07:34:52;53264.41;;;-138.15;51.75
20897;BME280;10608;42.600;23.398;2022-11-20T07:37:17;53286.13;;;-138.15;51.29
20897;BME280;10608;42.600;23.398;2022-11-20T07:39:43;53272.31;;;-138.15;52.48
20897;BME280;10608;42.600;23.398;2022-11-20T07:42:09;53274.28;;;-138.15;51.71
20897;BME280;10608;42.600;23.398;2022-11-20T07:44:34;53274.28;;;-138.15;51.76
20897;BME280;10608;42.600;23.398;2022-11-20T07:47:00;53276.25;;;-138.15;51.81
20897;BME280;10608;42.600;23.398;2022-11-20T07:49:25;53282.19;;;-138.15;52.12
20897;BME280;10608;42.600;23.398;2022-11-20T07:51:51;53270.34;;;-138.15;51.74
20897;BME280;10608;42.600;23.398;2022-11-20T07:54:19;53276.25;;;-138.15;51.30
20897;BME280;10608;42.600;23.398;2022-11-20T07:56:45;53290.06;;;-138.15;51.35
20897;BME280;10608;42.600;23.398;2022-11-20T07:59:10;53284.16;;;-138.15;51.52
20897;BME280;10608;42.600;23.398;2022-11-20T08:01:37;53274.28;;;-138.15;52.18
20897;BME280;10608;42.600;23.398;2022-11-20T08:04:03;53274.28;;;-138.15;53.95
20897;BME280;10608;42.600;23.398;2022-11-20T08:06:28;53295.97;;;-138.15;55.21
20897;BME280;10608;42.600;23.398;2022-11-20T08:08:54;53262.44;;;-138.15;55.83
20897;BME280;10608;42.600;23.398;2022-11-20T08:11:19;53252.59;;;-138.15;55.90
20897;BME280;10608;42.600;23.398;2022-11-20T08:14:04;53264.41;;;-138.15;54.35
20897;BME280;10608;42.600;23.398;2022-11-20T08:16:43;53280.19;;;-138.15;53.68
20897;BME280;10608;42.600;23.398;2022-11-20T08:19:09;53274.28;;;-138.15;51.10
20897;BME280;10608;42.600;23.398;2022-11-20T08:21:35;53274.28;;;-138.15;51.21
20897;BME280;10608;42.600;23.398;2022-11-20T08:24:00;53309.78;;;-138.15;51.03
20897;BME280;10608;42.600;23.398;2022-11-20T08:26:26;53276.25;;;-138.15;51.15
20897;BME280;10608;42.600;23.398;2022-11-20T08:28:56;53270.34;;;-138.15;49.10
20897;BME280;10608;42.600;23.398;2022-11-20T08:31:23;53266.41;;;-138.15;48.25
20897;BME280;10608;42.600;23.398;2022-11-20T08:33:49;53276.25;;;-138.15;48.10
20897;BME280;10608;42.600;23.398;2022-11-20T08:36:14;53254.56;;;-138.15;47.29
20897;BME280;10608;42.600;23.398;2022-11-20T08:38:40;53242.72;;;-138.15;46.88
20897;BME280;10608;42.600;23.398;2022-11-20T08:41:06;53246.66;;;-138.15;46.03
20897;BME280;10608;42.600;23.398;2022-11-20T08:43:53;53242.72;;;-138.15;45.81
20897;BME280;10608;42.600;23.398;2022-11-20T08:46:19;53258.50;;;-138.15;46.04
20897;BME280;10608;42.600;23.398;2022-11-20T08:48:45;53268.38;;;-138.15;46.98
20897;BME280;10608;42.600;23.398;2022-11-20T08:51:11;53270.34;;;-138.15;47.32
20897;BME280;10608;42.600;23.398;2022-11-20T08:53:37;53230.88;;;-138.15;46.86
20897;BME280;10608;42.600;23.398;2022-11-20T08:56:03;53248.63;;;-138.15;46.98
20897;BME280;10608;42.600;23.398;2022-11-20T08:58:29;53254.56;;;-138.15;48.08
20897;BME280;10608;42.600;23.398;2022-11-20T09:00:57;53228.91;;;-138.15;47.37
20897;BME280;10608;42.600;23.398;2022-11-20T09:03:23;53276.25;;;-138.15;48.09
20897;BME280;10608;42.600;23.398;2022-11-20T09:05:48;53256.53;;;-138.15;47.51
20897;BME280;10608;42.600;23.398;2022-11-20T09:08:14;53250.63;;;-138.15;46.23
20897;BME280;10608;42.600;23.398;2022-11-20T09:10:39;53234.84;;;-138.15;46.64
20897;BME280;10608;42.600;23.398;2022-11-20T09:13:05;53256.53;;;-138.15;46.36
20897;BME280;10608;42.600;23.398;2022-11-20T09:15:30;53258.50;;;-138.15;46.47
20897;BME280;10608;42.600;23.398;2022-11-20T09:18:03;53266.41;;;-138.15;47.63
20897;BME280;10608;42.600;23.398;2022-11-20T09:20:30;53260.47;;;-138.15;48.03
20897;BME280;10608;42.600;23.398;2022-11-20T09:22:56;53244.69;;;-138.15;48.84
20897;BME280;10608;42.600;23.398;2022-11-20T09:25:22;53252.59;;;-138.15;49.23
20897;BME280;10608;42.600;23.398;2022-11-20T09:27:47;53264.41;;;-138.15;48.13
20897;BME280;10608;42.600;23.398;2022-11-20T09:30:14;53248.63;;;-138.15;46.51
20897;BME280;10608;42.600;23.398;2022-11-20T09:32:40;53238.78;;;-138.15;45.90
20897;BME280;10608;42.600;23.398;2022-11-20T09:35:06;53246.66;;;-138.15;47.61
20897;BME280;10608;42.600;23.398;2022-11-20T09:37:32;53250.63;;;-138.15;47.26
20897;BME280;10608;42.600;23.398;2022-11-20T09:39:57;53224.97;;;-138.15;47.65
20897;BME280;10608;42.600;23.398;2022-11-20T09:42:47;53264.41;;;-138.15;46.76
20897;BME280;10608;42.600;23.398;2022-11-20T09:50:36;53226.94;;;-138.15;46.30
20897;BME280;10608;42.600;23.398;2022-11-20T09:53:27;53292.03;;;-138.15;47.44
20897;BME280;10608;42.600;23.398;2022-11-20T09:55:56;53244.69;;;-138.15;49.03
20897;BME280;10608;42.600;23.398;2022-11-20T09:58:39;53234.84;;;-138.15;49.73
20897;BME280;10608;42.600;23.398;2022-11-20T10:01:19;53224.97;;;-138.15;51.30
20897;BME280;10608;42.600;23.398;2022-11-20T10:03:47;53252.59;;;-138.15;51.50
20897;BME280;10608;42.600;23.398;2022-11-20T10:06:17;53343.31;;;-138.15;51.05
20897;BME280;10608;42.600;23.398;2022-11-20T10:08:55;53258.50;;;-138.15;51.23
20897;BME280;10608;42.600;23.398;2022-11-20T10:11:43;53242.72;;;-138.15;51.22
20897;BME280;10608;42.600;23.398;2022-11-20T10:17:30;53250.63;;;-138.15;49.56
20897;BME280;10608;42.600;23.398;2022-11-20T10:20:19;53242.72;;;-138.15;50.35
20897;BME280;10608;42.600;23.398;2022-11-20T10:23:17;53276.25;;;-138.15;50.20
20897;BME280;10608;42.600;23.398;2022-11-20T10:29:17;53223.00;;;-138.15;51.59
20897;BME280;10608;42.600;23.398;2022-11-20T10:31:51;53215.09;;;-138.15;52.08
20897;BME280;10608;42.600;23.398;2022-11-20T10:34:38;53219.06;;;-138.15;50.91
20897;BME280;10608;42.600;23.398;2022-11-20T10:37:23;53242.72;;;-138.15;49.65
20897;BME280;10608;42.600;23.398;2022-11-20T10:43:09;53238.78;;;-138.15;47.71
20897;BME280;10608;42.600;23.398;2022-11-20T10:45:48;53240.75;;;-138.15;48.74
20897;BME280;10608;42.600;23.398;2022-11-20T10:48:19;53246.66;;;-138.15;47.39
20897;BME280;10608;42.600;23.398;2022-11-20T10:56:50;53254.56;;;-138.15;49.61
20897;BME280;10608;42.600;23.398;2022-11-20T10:59:35;53230.88;;;-138.15;50.37
20897;BME280;10608;42.600;23.398;2022-11-20T11:02:15;53258.50;;;-138.15;51.98
20897;BME280;10608;42.600;23.398;2022-11-20T11:04:49;53288.09;;;-138.15;52.08
20897;BME280;10608;42.600;23.398;2022-11-20T11:07:25;53234.84;;;-138.15;52.71
20897;BME280;10608;42.600;23.398;2022-11-20T11:09:54;53294.00;;;-138.15;55.81
20897;BME280;10608;42.600;23.398;2022-11-20T11:12:24;53278.22;;;-138.15;55.52
20897;BME280;10608;42.600;23.398;2022-11-20T11:14:55;53262.44;;;-138.15;57.53
20897;BME280;10608;42.600;23.398;2022-11-20T11:19:59;53266.41;;;-138.15;62.39
20897;BME280;10608;42.600;23.398;2022-11-20T11:22:24;53232.84;;;-138.15;65.84
20897;BME280;10608;42.600;23.398;2022-11-20T11:24:53;53254.56;;;-138.15;69.37
20897;BME280;10608;42.600;23.398;2022-11-20T11:27:19;53295.97;;;-138.15;71.28
20897;BME280;10608;42.600;23.398;2022-11-20T11:29:47;53301.91;;;-138.15;70.97
20897;BME280;10608;42.600;23.398;2022-11-20T11:32:20;53288.09;;;-138.15;72.32
20897;BME280;10608;42.600;23.398;2022-11-20T11:35:04;53274.28;;;-138.15;72.73
20897;BME280;10608;42.600;23.398;2022-11-20T11:37:35;53272.31;;;-138.15;73.12
20897;BME280;10608;42.600;23.398;2022-11-20T11:40:03;53276.25;;;-138.15;74.70
20897;BME280;10608;42.600;23.398;2022-11-20T11:42:30;53335.44;;;-138.15;80.06
20897;BME280;10608;42.600;23.398;2022-11-20T11:44:58;53313.75;;;-138.15;84.28
20897;BME280;10608;42.600;23.398;2022-11-20T11:47:36;53331.50;;;-138.15;86.57
20897;BME280;10608;42.600;23.398;2022-11-20T11:52:28;53331.50;;;-138.15;73.85
20897;BME280;10608;42.600;23.398;2022-11-20T11:55:01;53313.75;;;-138.15;71.10
20897;BME280;10608;42.600;23.398;2022-11-20T12:00:34;53331.50;;;-138.15;74.00
20897;BME280;10608;42.600;23.398;2022-11-20T12:05:47;53294.00;;;-138.15;75.80
20897;BME280;10608;42.600;23.398;2022-11-20T12:08:24;53329.53;;;-138.15;75.53
20897;BME280;10608;42.600;23.398;2022-11-20T12:11:11;53317.69;;;-138.15;75.92
20897;BME280;10608;42.600;23.398;2022-11-20T12:16:13;53301.91;;;-138.15;76.18
20897;BME280;10608;42.600;23.398;2022-11-20T12:18:40;53294.00;;;-138.15;75.70
20897;BME280;10608;42.600;23.398;2022-11-20T12:30:10;53290.06;;;-138.15;77.23
20897;BME280;10608;42.600;23.398;2022-11-20T12:38:36;53333.47;;;-138.15;75.15
20897;BME280;10608;42.600;23.398;2022-11-20T12:41:38;53299.94;;;-138.15;77.96
20897;BME280;10608;42.600;23.398;2022-11-20T12:55:47;53317.69;;;-138.15;81.71
20897;BME280;10608;42.600;23.398;2022-11-20T12:58:39;53335.44;;;-138.15;82.45
20897;BME280;10608;42.600;23.398;2022-11-20T13:01:24;53341.34;;;-138.15;81.25
20897;BME280;10608;42.600;23.398;2022-11-20T13:07:24;53313.75;;;-138.15;77.91
20897;BME280;10608;42.600;23.398;2022-11-20T13:09:51;53311.75;;;-138.15;78.93
20897;BME280;10608;42.600;23.398;2022-11-20T13:12:45;53313.75;;;-138.15;79.53
20897;BME280;10608;42.600;23.398;2022-11-20T13:15:28;53301.91;;;-138.15;79.52
20897;BME280;10608;42.600;23.398;2022-11-20T13:17:59;53319.66;;;-138.15;79.45
20897;BME280;10608;42.600;23.398;2022-11-20T13:20:26;53294.00;;;-138.15;79.40
20897;BME280;10608;42.600;23.398;2022-11-20T13:22:53;53313.75;;;-138.15;78.19
20897;BME280;10608;42.600;23.398;2022-11-20T13:25:33;53321.63;;;-138.15;80.45
20897;BME280;10608;42.600;23.398;2022-11-20T13:28:01;53325.56;;;-138.15;81.14
20897;BME280;10608;42.600;23.398;2022-11-20T13:30:29;53327.53;;;-138.15;79.24
20897;BME280;10608;42.600;23.398;2022-11-20T13:33:09;53282.19;;;-138.15;76.35
20897;BME280;10608;42.600;23.398;2022-11-20T13:36:00;53319.66;;;-138.15;79.15
20897;BME280;10608;42.600;23.398;2022-11-20T13:38:27;53341.34;;;-138.15;79.03
20897;BME280;10608;42.600;23.398;2022-11-20T13:40:56;53333.47;;;-138.15;79.26
20897;BME280;10608;42.600;23.398;2022-11-20T13:43:40;53301.91;;;-138.15;79.14
20897;BME280;10608;42.600;23.398;2022-11-20T13:46:08;53365.03;;;-138.15;78.99
20897;BME280;10608;42.600;23.398;2022-11-20T13:48:39;53349.25;;;-138.15;79.60
20897;BME280;10608;42.600;23.398;2022-11-20T13:51:23;53323.59;;;-138.15;78.80
20897;BME280;10608;42.600;23.398;2022-11-20T13:56:52;53274.28;;;-138.15;78.56